sensor_id;sensor_type;location;lat;lon;timestamp;temperature;humidity
69543;SHT31;56762;49.494;11.768;2024-01-06T00:01:43;3.94;90.68
69543;SHT31;56762;49.494;11.768;2024-01-06T00:04:11;3.92;91.08
69543;SHT31;56762;49.494;11.768;2024-01-06T00:06:39;3.89;91.15
69543;SHT31;56762;49.494;11.768;2024-01-06T00:09:06;3.89;91.20
69543;SHT31;56762;49.494;11.768;2024-01-06T00:11:36;3.90;90.95
69543;SHT31;56762;49.494;11.768;2024-01-06T00:14:04;3.92;90.86
69543;SHT31;56762;49.494;11.768;2024-01-06T00:16:32;3.86;91.08
69543;SHT31;56762;49.494;11.768;2024-01-06T00:18:59;3.87;91.01
69543;SHT31;56762;49.494;11.768;2024-01-06T00:21:29;3.82;90.79
69543;SHT31;56762;49.494;11.768;2024-01-06T00:23:57;3.79;91.15
69543;SHT31;56762;49.494;11.768;2024-01-06T00:26:25;3.78;90.96
69543;SHT31;56762;49.494;11.768;2024-01-06T00:28:54;3.76;90.39
69543;SHT31;56762;49.494;11.768;2024-01-06T00:31:22;3.75;90.36
69543;SHT31;56762;49.494;11.768;2024-01-06T00:33:50;3.76;90.49
69543;SHT31;56762;49.494;11.768;2024-01-06T00:36:18;3.72;90.42
69543;SHT31;56762;49.494;11.768;2024-01-06T00:38:45;3.68;90.21
69543;SHT31;56762;49.494;11.768;2024-01-06T00:41:14;3.69;90.98
69543;SHT31;56762;49.494;11.768;2024-01-06T00:43:42;3.68;90.76
69543;SHT31;56762;49.494;11.768;2024-01-06T00:46:11;3.66;90.49
69543;SHT31;56762;49.494;11.768;2024-01-06T00:48:39;3.69;90.74
69543;SHT31;56762;49.494;11.768;2024-01-06T00:51:07;3.69;91.00
69543;SHT31;56762;49.494;11.768;2024-01-06T00:53:36;3.66;91.09
69543;SHT31;56762;49.494;11.768;2024-01-06T00:56:04;3.68;91.29
69543;SHT31;56762;49.494;11.768;2024-01-06T00:58:31;3.69;90.99
69543;SHT31;56762;49.494;11.768;2024-01-06T01:00:59;3.68;90.86
69543;SHT31;56762;49.494;11.768;2024-01-06T01:03:28;3.66;90.91
69543;SHT31;56762;49.494;11.768;2024-01-06T01:05:57;3.69;91.20
69543;SHT31;56762;49.494;11.768;2024-01-06T01:08:24;3.66;91.26
69543;SHT31;56762;49.494;11.768;2024-01-06T01:10:52;3.69;91.33
69543;SHT31;56762;49.494;11.768;2024-01-06T01:13:21;3.72;91.40
69543;SHT31;56762;49.494;11.768;2024-01-06T01:15:48;3.75;91.35
69543;SHT31;56762;49.494;11.768;2024-01-06T01:18:16;3.75;91.34
69543;SHT31;56762;49.494;11.768;2024-01-06T01:20:46;3.73;91.24
69543;SHT31;56762;49.494;11.768;2024-01-06T01:23:14;3.75;91.28
69543;SHT31;56762;49.494;11.768;2024-01-06T01:25:41;3.76;91.28
69543;SHT31;56762;49.494;11.768;2024-01-06T01:28:09;3.76;91.32
69543;SHT31;56762;49.494;11.768;2024-01-06T01:30:37;3.75;91.18
69543;SHT31;56762;49.494;11.768;2024-01-06T01:33:05;3.76;90.88
69543;SHT31;56762;49.494;11.768;2024-01-06T01:35:33;3.75;90.42
69543;SHT31;56762;49.494;11.768;2024-01-06T01:38:02;3.76;90.31
69543;SHT31;56762;49.494;11.768;2024-01-06T01:40:30;3.73;90.71
69543;SHT31;56762;49.494;11.768;2024-01-06T01:42:58;3.75;90.60
69543;SHT31;56762;49.494;11.768;2024-01-06T01:45:26;3.72;90.90
69543;SHT31;56762;49.494;11.768;2024-01-06T01:47:53;3.72;90.74
69543;SHT31;56762;49.494;11.768;2024-01-06T01:50:21;3.72;90.57
69543;SHT31;56762;49.494;11.768;2024-01-06T01:52:49;3.73;90.85
69543;SHT31;56762;49.494;11.768;2024-01-06T01:55:18;3.73;90.66
69543;SHT31;56762;49.494;11.768;2024-01-06T01:57:47;3.75;90.96
69543;SHT31;56762;49.494;11.768;2024-01-06T02:00:15;3.73;90.85
69543;SHT31;56762;49.494;11.768;2024-01-06T02:02:43;3.75;90.89
69543;SHT31;56762;49.494;11.768;2024-01-06T02:05:11;3.76;90.95
69543;SHT31;56762;49.494;11.768;2024-01-06T02:07:39;3.73;90.65
69543;SHT31;56762;49.494;11.768;2024-01-06T02:10:08;3.72;89.86
69543;SHT31;56762;49.494;11.768;2024-01-06T02:12:37;3.72;90.34
69543;SHT31;56762;49.494;11.768;2024-01-06T02:15:06;3.70;90.51
69543;SHT31;56762;49.494;11.768;2024-01-06T02:17:34;3.70;90.56
69543;SHT31;56762;49.494;11.768;2024-01-06T02:20:03;3.73;90.40
69543;SHT31;56762;49.494;11.768;2024-01-06T02:22:33;3.70;90.76
69543;SHT31;56762;49.494;11.768;2024-01-06T02:25:01;3.68;90.64
69543;SHT31;56762;49.494;11.768;2024-01-06T02:27:29;3.69;90.81
69543;SHT31;56762;49.494;11.768;2024-01-06T02:29:58;3.66;90.84
69543;SHT31;56762;49.494;11.768;2024-01-06T02:32:26;3.66;90.66
69543;SHT31;56762;49.494;11.768;2024-01-06T02:34:54;3.63;89.91
69543;SHT31;56762;49.494;11.768;2024-01-06T02:37:22;3.62;89.91
69543;SHT31;56762;49.494;11.768;2024-01-06T02:39:52;3.65;90.53
69543;SHT31;56762;49.494;11.768;2024-01-06T02:42:20;3.63;90.67
69543;SHT31;56762;49.494;11.768;2024-01-06T02:44:48;3.62;90.66
69543;SHT31;56762;49.494;11.768;2024-01-06T02:47:16;3.65;91.06
69543;SHT31;56762;49.494;11.768;2024-01-06T02:49:45;3.66;90.67
69543;SHT31;56762;49.494;11.768;2024-01-06T02:52:12;3.63;90.86
69543;SHT31;56762;49.494;11.768;2024-01-06T02:54:41;3.63;90.85
69543;SHT31;56762;49.494;11.768;2024-01-06T02:57:10;3.63;90.91
69543;SHT31;56762;49.494;11.768;2024-01-06T02:59:40;3.63;91.05
69543;SHT31;56762;49.494;11.768;2024-01-06T03:02:08;3.62;90.90
69543;SHT31;56762;49.494;11.768;2024-01-06T03:04:36;3.63;90.84
69543;SHT31;56762;49.494;11.768;2024-01-06T03:07:03;3.63;90.94
69543;SHT31;56762;49.494;11.768;2024-01-06T03:09:31;3.61;90.82
69543;SHT31;56762;49.494;11.768;2024-01-06T03:11:59;3.62;90.99
69543;SHT31;56762;49.494;11.768;2024-01-06T03:14:29;3.62;90.99
69543;SHT31;56762;49.494;11.768;2024-01-06T03:16:56;3.61;91.08
69543;SHT31;56762;49.494;11.768;2024-01-06T03:19:24;3.58;91.41
69543;SHT31;56762;49.494;11.768;2024-01-06T03:21:54;3.62;91.17
69543;SHT31;56762;49.494;11.768;2024-01-06T03:24:23;3.62;90.97
69543;SHT31;56762;49.494;11.768;2024-01-06T03:26:51;3.61;91.02
69543;SHT31;56762;49.494;11.768;2024-01-06T03:29:19;3.62;91.12
69543;SHT31;56762;49.494;11.768;2024-01-06T03:31:49;3.61;91.43
69543;SHT31;56762;49.494;11.768;2024-01-06T03:34:16;3.63;91.29
69543;SHT31;56762;49.494;11.768;2024-01-06T03:36:45;3.61;91.17
69543;SHT31;56762;49.494;11.768;2024-01-06T03:39:12;3.61;91.25
69543;SHT31;56762;49.494;11.768;2024-01-06T03:41:41;3.62;91.46
69543;SHT31;56762;49.494;11.768;2024-01-06T03:44:08;3.62;91.33
69543;SHT31;56762;49.494;11.768;2024-01-06T03:46:37;3.61;91.40
69543;SHT31;56762;49.494;11.768;2024-01-06T03:49:06;3.62;91.36
69543;SHT31;56762;49.494;11.768;2024-01-06T03:51:34;3.63;91.37
69543;SHT31;56762;49.494;11.768;2024-01-06T03:54:02;3.63;91.20
69543;SHT31;56762;49.494;11.768;2024-01-06T03:56:30;3.65;91.38
69543;SHT31;56762;49.494;11.768;2024-01-06T03:58:58;3.65;91.18
69543;SHT31;56762;49.494;11.768;2024-01-06T04:01:26;3.68;91.38
69543;SHT31;56762;49.494;11.768;2024-01-06T04:03:55;3.65;91.37
69543;SHT31;56762;49.494;11.768;2024-01-06T04:06:24;3.66;91.49
69543;SHT31;56762;49.494;11.768;2024-01-06T04:08:52;3.63;91.33
69543;SHT31;56762;49.494;11.768;2024-01-06T04:11:21;3.63;91.26
69543;SHT31;56762;49.494;11.768;2024-01-06T04:13:50;3.66;91.32
69543;SHT31;56762;49.494;11.768;2024-01-06T04:16:18;3.65;91.24
69543;SHT31;56762;49.494;11.768;2024-01-06T04:18:46;3.68;90.90
69543;SHT31;56762;49.494;11.768;2024-01-06T04:21:14;3.65;90.91
69543;SHT31;56762;49.494;11.768;2024-01-06T04:23:43;3.68;91.13
69543;SHT31;56762;49.494;11.768;2024-01-06T04:26:11;3.69;90.71
69543;SHT31;56762;49.494;11.768;2024-01-06T04:28:39;3.69;90.65
69543;SHT31;56762;49.494;11.768;2024-01-06T04:31:07;3.66;90.84
69543;SHT31;56762;49.494;11.768;2024-01-06T04:33:37;3.65;90.64
69543;SHT31;56762;49.494;11.768;2024-01-06T04:36:07;3.68;90.89
69543;SHT31;56762;49.494;11.768;2024-01-06T04:38:35;3.66;90.95
69543;SHT31;56762;49.494;11.768;2024-01-06T04:41:04;3.66;90.79
69543;SHT31;56762;49.494;11.768;2024-01-06T04:43:32;3.68;90.94
69543;SHT31;56762;49.494;11.768;2024-01-06T04:46:00;3.68;90.84
69543;SHT31;56762;49.494;11.768;2024-01-06T04:48:29;3.68;90.69
69543;SHT31;56762;49.494;11.768;2024-01-06T04:50:57;3.69;90.97
69543;SHT31;56762;49.494;11.768;2024-01-06T04:53:25;3.73;90.86
69543;SHT31;56762;49.494;11.768;2024-01-06T04:55:52;3.69;90.98
69543;SHT31;56762;49.494;11.768;2024-01-06T04:58:22;3.73;90.91
69543;SHT31;56762;49.494;11.768;2024-01-06T05:00:50;3.70;90.87
69543;SHT31;56762;49.494;11.768;2024-01-06T05:03:19;3.72;90.71
69543;SHT31;56762;49.494;11.768;2024-01-06T05:05:47;3.75;91.00
69543;SHT31;56762;49.494;11.768;2024-01-06T05:08:15;3.76;90.82
69543;SHT31;56762;49.494;11.768;2024-01-06T05:10:44;3.75;90.82
69543;SHT31;56762;49.494;11.768;2024-01-06T05:13:15;3.78;90.81
69543;SHT31;56762;49.494;11.768;2024-01-06T05:15:45;3.76;91.04
69543;SHT31;56762;49.494;11.768;2024-01-06T05:18:13;3.78;90.74
69543;SHT31;56762;49.494;11.768;2024-01-06T05:20:42;3.75;90.69
69543;SHT31;56762;49.494;11.768;2024-01-06T05:23:09;3.73;90.87
69543;SHT31;56762;49.494;11.768;2024-01-06T05:25:38;3.70;90.71
69543;SHT31;56762;49.494;11.768;2024-01-06T05:28:05;3.70;90.76
69543;SHT31;56762;49.494;11.768;2024-01-06T05:30:33;3.73;90.92
69543;SHT31;56762;49.494;11.768;2024-01-06T05:33:03;3.72;90.90
69543;SHT31;56762;49.494;11.768;2024-01-06T05:35:31;3.73;90.84
69543;SHT31;56762;49.494;11.768;2024-01-06T05:37:59;3.73;90.76
69543;SHT31;56762;49.494;11.768;2024-01-06T05:40:28;3.69;91.04
69543;SHT31;56762;49.494;11.768;2024-01-06T05:42:55;3.69;90.70
69543;SHT31;56762;49.494;11.768;2024-01-06T05:45:23;3.68;90.68
69543;SHT31;56762;49.494;11.768;2024-01-06T05:47:56;3.56;89.91
69543;SHT31;56762;49.494;11.768;2024-01-06T05:50:25;3.54;89.87
69543;SHT31;56762;49.494;11.768;2024-01-06T05:52:53;3.48;89.94
69543;SHT31;56762;49.494;11.768;2024-01-06T05:55:21;3.43;89.73
69543;SHT31;56762;49.494;11.768;2024-01-06T05:57:49;3.38;90.26
69543;SHT31;56762;49.494;11.768;2024-01-06T06:00:17;3.35;90.30
69543;SHT31;56762;49.494;11.768;2024-01-06T06:02:45;3.30;90.03
69543;SHT31;56762;49.494;11.768;2024-01-06T06:05:13;3.25;90.07
69543;SHT31;56762;49.494;11.768;2024-01-06T06:07:43;3.21;90.42
69543;SHT31;56762;49.494;11.768;2024-01-06T06:10:11;3.17;90.27
69543;SHT31;56762;49.494;11.768;2024-01-06T06:12:39;3.11;90.52
69543;SHT31;56762;49.494;11.768;2024-01-06T06:15:07;3.07;90.36
69543;SHT31;56762;49.494;11.768;2024-01-06T06:17:35;3.04;90.37
69543;SHT31;56762;49.494;11.768;2024-01-06T06:20:05;3.03;90.22
69543;SHT31;56762;49.494;11.768;2024-01-06T06:22:33;3.00;90.20
69543;SHT31;56762;49.494;11.768;2024-01-06T06:25:02;2.99;90.99
69543;SHT31;56762;49.494;11.768;2024-01-06T06:27:30;3.01;91.34
69543;SHT31;56762;49.494;11.768;2024-01-06T06:29:59;3.04;91.45
69543;SHT31;56762;49.494;11.768;2024-01-06T06:32:26;3.04;91.29
69543;SHT31;56762;49.494;11.768;2024-01-06T06:34:55;3.04;91.47
69543;SHT31;56762;49.494;11.768;2024-01-06T06:37:23;3.08;91.38
69543;SHT31;56762;49.494;11.768;2024-01-06T06:39:51;3.05;91.03
69543;SHT31;56762;49.494;11.768;2024-01-06T06:42:20;3.07;91.34
69543;SHT31;56762;49.494;11.768;2024-01-06T06:44:48;3.10;91.61
69543;SHT31;56762;49.494;11.768;2024-01-06T06:47:16;3.08;91.32
69543;SHT31;56762;49.494;11.768;2024-01-06T06:49:45;3.07;91.37
69543;SHT31;56762;49.494;11.768;2024-01-06T06:52:13;3.03;91.35
69543;SHT31;56762;49.494;11.768;2024-01-06T06:54:41;3.03;91.63
69543;SHT31;56762;49.494;11.768;2024-01-06T06:57:09;3.01;91.78
69543;SHT31;56762;49.494;11.768;2024-01-06T06:59:39;3.01;91.78
69543;SHT31;56762;49.494;11.768;2024-01-06T07:02:07;3.05;91.92
69543;SHT31;56762;49.494;11.768;2024-01-06T07:04:35;3.04;91.94
69543;SHT31;56762;49.494;11.768;2024-01-06T07:07:04;3.07;92.12
69543;SHT31;56762;49.494;11.768;2024-01-06T07:09:31;3.08;91.91
69543;SHT31;56762;49.494;11.768;2024-01-06T07:12:00;3.12;91.97
69543;SHT31;56762;49.494;11.768;2024-01-06T07:14:27;3.14;91.74
69543;SHT31;56762;49.494;11.768;2024-01-06T07:16:57;3.15;91.91
69543;SHT31;56762;49.494;11.768;2024-01-06T07:19:25;3.17;92.13
69543;SHT31;56762;49.494;11.768;2024-01-06T07:21:53;3.21;91.83
69543;SHT31;56762;49.494;11.768;2024-01-06T07:24:21;3.25;92.05
69543;SHT31;56762;49.494;11.768;2024-01-06T07:26:49;3.27;91.87
69543;SHT31;56762;49.494;11.768;2024-01-06T07:29:17;3.31;91.65
69543;SHT31;56762;49.494;11.768;2024-01-06T07:31:45;3.30;91.04
69543;SHT31;56762;49.494;11.768;2024-01-06T07:34:15;3.27;90.28
69543;SHT31;56762;49.494;11.768;2024-01-06T07:36:43;3.22;90.04
69543;SHT31;56762;49.494;11.768;2024-01-06T07:39:12;3.22;90.03
69543;SHT31;56762;49.494;11.768;2024-01-06T07:41:39;3.20;89.52
69543;SHT31;56762;49.494;11.768;2024-01-06T07:44:07;3.20;89.72
69543;SHT31;56762;49.494;11.768;2024-01-06T07:46:35;3.18;89.74
69543;SHT31;56762;49.494;11.768;2024-01-06T07:49:03;3.11;89.60
69543;SHT31;56762;49.494;11.768;2024-01-06T07:51:33;3.17;90.32
69543;SHT31;56762;49.494;11.768;2024-01-06T07:54:01;3.20;89.70
69543;SHT31;56762;49.494;11.768;2024-01-06T07:56:29;3.21;90.64
69543;SHT31;56762;49.494;11.768;2024-01-06T07:58:57;3.25;91.11
69543;SHT31;56762;49.494;11.768;2024-01-06T08:01:25;3.32;90.96
69543;SHT31;56762;49.494;11.768;2024-01-06T08:03:54;3.32;91.18
69543;SHT31;56762;49.494;11.768;2024-01-06T08:06:22;3.36;90.29
69543;SHT31;56762;49.494;11.768;2024-01-06T08:08:52;3.39;90.13
69543;SHT31;56762;49.494;11.768;2024-01-06T08:11:19;3.41;89.77
69543;SHT31;56762;49.494;11.768;2024-01-06T08:13:47;3.48;90.48
69543;SHT31;56762;49.494;11.768;2024-01-06T08:16:15;3.49;89.99
69543;SHT31;56762;49.494;11.768;2024-01-06T08:18:43;3.51;89.65
69543;SHT31;56762;49.494;11.768;2024-01-06T08:21:12;3.54;89.75
69543;SHT31;56762;49.494;11.768;2024-01-06T08:23:39;3.54;89.40
69543;SHT31;56762;49.494;11.768;2024-01-06T08:26:09;3.54;89.57
69543;SHT31;56762;49.494;11.768;2024-01-06T08:28:39;3.56;90.26
69543;SHT31;56762;49.494;11.768;2024-01-06T08:31:07;3.62;90.80
69543;SHT31;56762;49.494;11.768;2024-01-06T08:33:35;3.66;90.83
69543;SHT31;56762;49.494;11.768;2024-01-06T08:36:03;3.78;91.19
69543;SHT31;56762;49.494;11.768;2024-01-06T08:38:31;3.82;91.27
69543;SHT31;56762;49.494;11.768;2024-01-06T08:40:59;3.86;91.03
69543;SHT31;56762;49.494;11.768;2024-01-06T08:43:28;3.90;90.25
69543;SHT31;56762;49.494;11.768;2024-01-06T08:45:56;3.93;90.26
69543;SHT31;56762;49.494;11.768;2024-01-06T08:48:24;3.96;90.88
69543;SHT31;56762;49.494;11.768;2024-01-06T08:50:52;3.97;91.09
69543;SHT31;56762;49.494;11.768;2024-01-06T08:53:20;4.00;91.02
69543;SHT31;56762;49.494;11.768;2024-01-06T08:55:48;4.01;90.34
69543;SHT31;56762;49.494;11.768;2024-01-06T08:58:16;4.01;90.01
69543;SHT31;56762;49.494;11.768;2024-01-06T09:00:46;4.06;90.59
69543;SHT31;56762;49.494;11.768;2024-01-06T09:03:13;4.07;90.36
69543;SHT31;56762;49.494;11.768;2024-01-06T09:05:42;4.07;90.19
69543;SHT31;56762;49.494;11.768;2024-01-06T09:08:09;4.10;90.56
69543;SHT31;56762;49.494;11.768;2024-01-06T09:10:38;4.13;90.75
69543;SHT31;56762;49.494;11.768;2024-01-06T09:13:05;4.17;90.65
69543;SHT31;56762;49.494;11.768;2024-01-06T09:15:33;4.23;89.84
69543;SHT31;56762;49.494;11.768;2024-01-06T09:18:03;4.21;89.72
69543;SHT31;56762;49.494;11.768;2024-01-06T09:20:31;4.27;89.73
69543;SHT31;56762;49.494;11.768;2024-01-06T09:22:59;4.31;90.55
69543;SHT31;56762;49.494;11.768;2024-01-06T09:25:27;4.36;90.31
69543;SHT31;56762;49.494;11.768;2024-01-06T09:27:55;4.40;90.57
69543;SHT31;56762;49.494;11.768;2024-01-06T09:30:23;4.44;89.79
69543;SHT31;56762;49.494;11.768;2024-01-06T09:32:52;4.50;89.90
69543;SHT31;56762;49.494;11.768;2024-01-06T09:35:21;4.54;90.10
69543;SHT31;56762;49.494;11.768;2024-01-06T09:37:49;4.62;89.79
69543;SHT31;56762;49.494;11.768;2024-01-06T09:40:22;4.58;89.58
69543;SHT31;56762;49.494;11.768;2024-01-06T09:42:50;4.86;93.64
69543;SHT31;56762;49.494;11.768;2024-01-06T09:45:19;4.95;91.36
69543;SHT31;56762;49.494;11.768;2024-01-06T09:47:49;4.97;91.40
69543;SHT31;56762;49.494;11.768;2024-01-06T09:50:19;5.02;90.76
69543;SHT31;56762;49.494;11.768;2024-01-06T09:52:48;5.00;90.60
69543;SHT31;56762;49.494;11.768;2024-01-06T09:55:23;5.03;90.33
69543;SHT31;56762;49.494;11.768;2024-01-06T09:57:52;5.08;90.02
69543;SHT31;56762;49.494;11.768;2024-01-06T10:00:21;5.09;89.70
69543;SHT31;56762;49.494;11.768;2024-01-06T10:02:49;5.12;89.96
69543;SHT31;56762;49.494;11.768;2024-01-06T10:05:18;5.13;89.56
69543;SHT31;56762;49.494;11.768;2024-01-06T10:07:47;5.15;89.59
69543;SHT31;56762;49.494;11.768;2024-01-06T10:10:15;5.20;89.57
69543;SHT31;56762;49.494;11.768;2024-01-06T10:12:43;5.19;88.07
69543;SHT31;56762;49.494;11.768;2024-01-06T10:15:12;5.18;87.90
69543;SHT31;56762;49.494;11.768;2024-01-06T10:17:40;5.22;89.68
69543;SHT31;56762;49.494;11.768;2024-01-06T10:20:10;5.24;88.32
69543;SHT31;56762;49.494;11.768;2024-01-06T10:22:41;5.24;88.33
69543;SHT31;56762;49.494;11.768;2024-01-06T10:25:11;5.42;90.27
69543;SHT31;56762;49.494;11.768;2024-01-06T10:27:40;5.48;89.78
69543;SHT31;56762;49.494;11.768;2024-01-06T10:30:09;5.44;87.50
69543;SHT31;56762;49.494;11.768;2024-01-06T10:32:39;5.43;88.07
69543;SHT31;56762;49.494;11.768;2024-01-06T10:35:07;5.61;90.29
69543;SHT31;56762;49.494;11.768;2024-01-06T10:37:35;5.54;87.68
69543;SHT31;56762;49.494;11.768;2024-01-06T10:40:08;5.65;87.49
69543;SHT31;56762;49.494;11.768;2024-01-06T10:42:38;5.61;87.18
69543;SHT31;56762;49.494;11.768;2024-01-06T10:45:08;5.67;87.18
69543;SHT31;56762;49.494;11.768;2024-01-06T10:47:37;5.71;87.25
69543;SHT31;56762;49.494;11.768;2024-01-06T10:50:06;5.75;87.37
69543;SHT31;56762;49.494;11.768;2024-01-06T10:52:37;5.79;86.64
69543;SHT31;56762;49.494;11.768;2024-01-06T10:55:06;5.79;85.96
69543;SHT31;56762;49.494;11.768;2024-01-06T10:57:34;5.97;89.93
69543;SHT31;56762;49.494;11.768;2024-01-06T11:00:06;5.95;85.63
69543;SHT31;56762;49.494;11.768;2024-01-06T11:02:37;5.97;86.57
69543;SHT31;56762;49.494;11.768;2024-01-06T11:05:06;6.05;86.73
69543;SHT31;56762;49.494;11.768;2024-01-06T11:07:34;6.09;87.97
69543;SHT31;56762;49.494;11.768;2024-01-06T11:10:06;6.16;87.39
69543;SHT31;56762;49.494;11.768;2024-01-06T11:12:36;6.13;85.32
69543;SHT31;56762;49.494;11.768;2024-01-06T11:15:06;6.08;87.43
69543;SHT31;56762;49.494;11.768;2024-01-06T11:17:50;6.01;85.24
69543;SHT31;56762;49.494;11.768;2024-01-06T11:20:21;6.05;85.10
69543;SHT31;56762;49.494;11.768;2024-01-06T11:22:49;6.04;83.95
69543;SHT31;56762;49.494;11.768;2024-01-06T11:25:18;6.02;85.16
69543;SHT31;56762;49.494;11.768;2024-01-06T11:27:47;6.09;86.15
69543;SHT31;56762;49.494;11.768;2024-01-06T11:30:21;6.09;84.78
69543;SHT31;56762;49.494;11.768;2024-01-06T11:32:50;6.01;83.99
69543;SHT31;56762;49.494;11.768;2024-01-06T11:35:21;6.01;86.21
69543;SHT31;56762;49.494;11.768;2024-01-06T11:37:52;5.87;83.20
69543;SHT31;56762;49.494;11.768;2024-01-06T11:40:24;5.74;83.05
69543;SHT31;56762;49.494;11.768;2024-01-06T11:43:00;5.73;84.50
69543;SHT31;56762;49.494;11.768;2024-01-06T11:45:30;5.71;83.60
69543;SHT31;56762;49.494;11.768;2024-01-06T11:47:59;5.67;84.32
69543;SHT31;56762;49.494;11.768;2024-01-06T11:50:30;5.73;86.07
69543;SHT31;56762;49.494;11.768;2024-01-06T11:52:59;5.78;84.58
69543;SHT31;56762;49.494;11.768;2024-01-06T11:55:27;5.71;85.61
69543;SHT31;56762;49.494;11.768;2024-01-06T11:57:55;5.57;85.17
69543;SHT31;56762;49.494;11.768;2024-01-06T12:00:24;5.55;85.51
69543;SHT31;56762;49.494;11.768;2024-01-06T12:02:57;5.50;83.85
69543;SHT31;56762;49.494;11.768;2024-01-06T12:05:25;5.57;86.34
69543;SHT31;56762;49.494;11.768;2024-01-06T12:07:54;5.54;85.22
69543;SHT31;56762;49.494;11.768;2024-01-06T12:10:23;5.67;85.49
69543;SHT31;56762;49.494;11.768;2024-01-06T12:12:58;5.77;86.73
69543;SHT31;56762;49.494;11.768;2024-01-06T12:15:27;5.67;83.38
69543;SHT31;56762;49.494;11.768;2024-01-06T12:17:57;5.64;84.61
69543;SHT31;56762;49.494;11.768;2024-01-06T12:20:26;5.78;87.69
69543;SHT31;56762;49.494;11.768;2024-01-06T12:22:55;5.90;84.92
69543;SHT31;56762;49.494;11.768;2024-01-06T12:25:24;5.84;83.90
69543;SHT31;56762;49.494;11.768;2024-01-06T12:27:53;5.85;85.51
69543;SHT31;56762;49.494;11.768;2024-01-06T12:30:22;5.85;83.49
69543;SHT31;56762;49.494;11.768;2024-01-06T12:32:51;5.75;82.71
69543;SHT31;56762;49.494;11.768;2024-01-06T12:35:21;5.81;84.13
69543;SHT31;56762;49.494;11.768;2024-01-06T12:37:51;5.82;84.15
69543;SHT31;56762;49.494;11.768;2024-01-06T12:40:19;5.79;82.24
69543;SHT31;56762;49.494;11.768;2024-01-06T12:42:47;5.75;82.66
69543;SHT31;56762;49.494;11.768;2024-01-06T12:45:16;5.70;83.72
69543;SHT31;56762;49.494;11.768;2024-01-06T12:47:44;5.87;84.63
69543;SHT31;56762;49.494;11.768;2024-01-06T12:50:12;5.97;81.80
69543;SHT31;56762;49.494;11.768;2024-01-06T12:52:43;5.77;80.29
69543;SHT31;56762;49.494;11.768;2024-01-06T12:55:12;5.78;82.91
69543;SHT31;56762;49.494;11.768;2024-01-06T12:57:40;5.61;80.08
69543;SHT31;56762;49.494;11.768;2024-01-06T13:00:10;5.71;82.87
69543;SHT31;56762;49.494;11.768;2024-01-06T13:02:38;5.77;81.09
69543;SHT31;56762;49.494;11.768;2024-01-06T13:05:07;5.73;82.05
69543;SHT31;56762;49.494;11.768;2024-01-06T13:07:36;5.74;82.70
69543;SHT31;56762;49.494;11.768;2024-01-06T13:10:06;5.68;80.29
69543;SHT31;56762;49.494;11.768;2024-01-06T13:12:34;5.64;80.17
69543;SHT31;56762;49.494;11.768;2024-01-06T13:15:03;5.55;79.98
69543;SHT31;56762;49.494;11.768;2024-01-06T13:17:32;5.51;80.72
69543;SHT31;56762;49.494;11.768;2024-01-06T13:20:00;5.37;80.36
69543;SHT31;56762;49.494;11.768;2024-01-06T13:22:28;5.34;81.66
69543;SHT31;56762;49.494;11.768;2024-01-06T13:24:57;5.32;80.91
69543;SHT31;56762;49.494;11.768;2024-01-06T13:27:27;5.33;82.29
69543;SHT31;56762;49.494;11.768;2024-01-06T13:29:55;5.37;82.40
69543;SHT31;56762;49.494;11.768;2024-01-06T13:32:23;5.36;81.52
69543;SHT31;56762;49.494;11.768;2024-01-06T13:34:53;5.34;81.41
69543;SHT31;56762;49.494;11.768;2024-01-06T13:37:25;5.30;82.44
69543;SHT31;56762;49.494;11.768;2024-01-06T13:39:52;5.33;82.27
69543;SHT31;56762;49.494;11.768;2024-01-06T13:42:21;5.30;82.81
69543;SHT31;56762;49.494;11.768;2024-01-06T13:44:50;5.37;82.08
69543;SHT31;56762;49.494;11.768;2024-01-06T13:47:18;5.36;82.25
69543;SHT31;56762;49.494;11.768;2024-01-06T13:49:46;5.34;81.87
69543;SHT31;56762;49.494;11.768;2024-01-06T13:52:14;5.23;81.16
69543;SHT31;56762;49.494;11.768;2024-01-06T13:54:42;5.33;82.31
69543;SHT31;56762;49.494;11.768;2024-01-06T13:57:10;5.39;82.95
69543;SHT31;56762;49.494;11.768;2024-01-06T13:59:38;5.46;81.33
69543;SHT31;56762;49.494;11.768;2024-01-06T14:02:10;5.40;80.29
69543;SHT31;56762;49.494;11.768;2024-01-06T14:04:38;5.48;82.50
69543;SHT31;56762;49.494;11.768;2024-01-06T14:07:06;5.43;80.09
69543;SHT31;56762;49.494;11.768;2024-01-06T14:09:34;5.40;81.08
69543;SHT31;56762;49.494;11.768;2024-01-06T14:12:02;5.46;80.87
69543;SHT31;56762;49.494;11.768;2024-01-06T14:14:32;5.47;82.58
69543;SHT31;56762;49.494;11.768;2024-01-06T14:16:59;5.43;82.71
69543;SHT31;56762;49.494;11.768;2024-01-06T14:19:29;5.43;83.34
69543;SHT31;56762;49.494;11.768;2024-01-06T14:21:57;5.40;82.08
69543;SHT31;56762;49.494;11.768;2024-01-06T14:24:25;5.39;82.75
69543;SHT31;56762;49.494;11.768;2024-01-06T14:26:53;5.32;81.05
69543;SHT31;56762;49.494;11.768;2024-01-06T14:29:22;5.30;81.26
69543;SHT31;56762;49.494;11.768;2024-01-06T14:31:50;5.24;82.19
69543;SHT31;56762;49.494;11.768;2024-01-06T14:34:18;5.19;81.72
69543;SHT31;56762;49.494;11.768;2024-01-06T14:36:48;5.15;80.63
69543;SHT31;56762;49.494;11.768;2024-01-06T14:39:16;5.13;79.90
69543;SHT31;56762;49.494;11.768;2024-01-06T14:41:45;5.06;79.48
69543;SHT31;56762;49.494;11.768;2024-01-06T14:44:13;4.99;80.45
69543;SHT31;56762;49.494;11.768;2024-01-06T14:46:41;4.96;81.82
69543;SHT31;56762;49.494;11.768;2024-01-06T14:49:09;4.93;80.11
69543;SHT31;56762;49.494;11.768;2024-01-06T14:51:37;4.92;81.44
69543;SHT31;56762;49.494;11.768;2024-01-06T14:54:07;4.92;81.19
69543;SHT31;56762;49.494;11.768;2024-01-06T14:56:38;4.88;81.19
69543;SHT31;56762;49.494;11.768;2024-01-06T14:59:07;4.88;82.12
69543;SHT31;56762;49.494;11.768;2024-01-06T15:01:35;4.86;82.35
69543;SHT31;56762;49.494;11.768;2024-01-06T15:04:04;4.82;82.43
69543;SHT31;56762;49.494;11.768;2024-01-06T15:06:31;4.79;82.30
69543;SHT31;56762;49.494;11.768;2024-01-06T15:09:01;4.73;82.77
69543;SHT31;56762;49.494;11.768;2024-01-06T15:11:30;4.75;83.41
69543;SHT31;56762;49.494;11.768;2024-01-06T15:13:58;4.71;83.99
69543;SHT31;56762;49.494;11.768;2024-01-06T15:16:29;4.64;83.97
69543;SHT31;56762;49.494;11.768;2024-01-06T15:18:56;4.65;84.42
69543;SHT31;56762;49.494;11.768;2024-01-06T15:21:26;4.65;84.41
69543;SHT31;56762;49.494;11.768;2024-01-06T15:23:56;4.62;84.78
69543;SHT31;56762;49.494;11.768;2024-01-06T15:26:24;4.60;84.25
69543;SHT31;56762;49.494;11.768;2024-01-06T15:28:53;4.60;84.39
69543;SHT31;56762;49.494;11.768;2024-01-06T15:31:23;4.61;85.03
69543;SHT31;56762;49.494;11.768;2024-01-06T15:33:51;4.60;84.43
69543;SHT31;56762;49.494;11.768;2024-01-06T15:36:19;4.57;84.87
69543;SHT31;56762;49.494;11.768;2024-01-06T15:38:46;4.60;85.31